createdAt,value
2022-11-30T00:00:36.947Z,49.55
2022-11-30T00:03:04.542Z,47.95
2022-11-30T00:05:31.304Z,51.28
2022-11-30T00:08:01.082Z,45.75
2022-11-30T00:10:27.513Z,42.25
2022-11-30T00:12:54.073Z,45.08
2022-11-30T00:15:20.499Z,40.20
2022-11-30T00:17:47.379Z,39.22
2022-11-30T00:20:15.084Z,41.70
2022-11-30T00:22:42.311Z,40.88
2022-11-30T00:25:08.958Z,34.60
2022-11-30T00:27:35.791Z,34.97
2022-11-30T00:30:02.447Z,37.08
2022-11-30T00:32:29.292Z,37.97
2022-11-30T00:34:55.750Z,37.17
2022-11-30T00:37:22.217Z,37.70
2022-11-30T00:39:48.634Z,38.90
2022-11-30T00:42:15.053Z,37.85
2022-11-30T00:44:41.559Z,37.95
2022-11-30T00:47:08.162Z,36.22
2022-11-30T00:49:34.561Z,37.75
2022-11-30T00:52:01.518Z,38.38
2022-11-30T00:54:28.031Z,35.15
2022-11-30T00:56:54.435Z,37.58
2022-11-30T00:59:20.910Z,41.47
2022-11-30T01:01:47.351Z,40.80
2022-11-30T01:04:13.834Z,40.75
2022-11-30T01:06:40.211Z,39.90
2022-11-30T01:09:06.659Z,40.47
2022-11-30T01:11:33.052Z,45.25
2022-11-30T01:14:00.407Z,43.65
2022-11-30T01:16:30.108Z,45.20
2022-11-30T01:18:56.879Z,44.22
2022-11-30T01:21:25.449Z,43.35
2022-11-30T01:23:52.297Z,42.55
2022-11-30T01:26:19.381Z,41.53
2022-11-30T01:28:50.572Z,41.05
2022-11-30T01:31:17.242Z,42.97
2022-11-30T01:33:43.786Z,41.63
2022-11-30T01:36:15.661Z,41.65
2022-11-30T01:38:47.120Z,42.30
2022-11-30T01:41:16.728Z,39.50
2022-11-30T01:43:49.308Z,41.78
2022-11-30T01:49:07.542Z,45.08
2022-11-30T01:51:38.450Z,41.80
2022-11-30T01:54:08.522Z,45.95
2022-11-30T01:56:34.986Z,47.83
2022-11-30T01:59:01.477Z,42.75
2022-11-30T02:01:28.018Z,43.40
2022-11-30T02:04:03.846Z,45.10
2022-11-30T02:06:30.232Z,41.67
2022-11-30T02:08:56.694Z,43.00
2022-11-30T02:11:24.236Z,46.17
2022-11-30T02:14:23.876Z,45.00
2022-11-30T02:16:53.066Z,47.60
2022-11-30T02:19:39.742Z,41.78
2022-11-30T02:22:24.561Z,39.13
2022-11-30T02:25:08.756Z,41.00
2022-11-30T02:27:41.268Z,36.20
2022-11-30T02:32:38.760Z,38.13
2022-11-30T02:35:05.901Z,36.38
2022-11-30T02:37:33.392Z,34.95
2022-11-30T02:39:59.807Z,32.70
2022-11-30T02:42:26.301Z,33.88
2022-11-30T02:44:53.500Z,34.03
2022-11-30T02:47:41.598Z,27.60
2022-11-30T02:50:13.406Z,24.92
2022-11-30T02:52:39.926Z,25.83
2022-11-30T02:55:09.164Z,21.08
2022-11-30T02:57:35.850Z,21.23
2022-11-30T03:00:06.884Z,22.58
2022-11-30T03:02:33.563Z,22.60
2022-11-30T03:05:00.090Z,21.95
2022-11-30T03:07:26.520Z,18.63
2022-11-30T03:09:53.054Z,19.92
2022-11-30T03:12:19.472Z,16.08
2022-11-30T03:14:46.103Z,18.58
2022-11-30T03:17:12.668Z,17.85
2022-11-30T03:19:39.088Z,20.00
2022-11-30T03:22:05.556Z,15.35
2022-11-30T03:24:31.909Z,17.17
2022-11-30T03:26:58.333Z,17.48
2022-11-30T03:29:24.774Z,16.92
2022-11-30T03:31:51.265Z,14.15
2022-11-30T03:34:17.650Z,15.35
2022-11-30T03:36:44.120Z,13.80
2022-11-30T03:39:10.602Z,12.20
2022-11-30T03:41:37.057Z,15.68
2022-11-30T03:44:03.438Z,15.13
2022-11-30T03:46:29.912Z,13.77
2022-11-30T03:48:56.399Z,13.80
2022-11-30T03:51:22.891Z,12.85
2022-11-30T03:53:49.457Z,15.30
2022-11-30T03:56:16.751Z,13.07
2022-11-30T03:58:43.168Z,13.75
2022-11-30T04:01:15.168Z,13.68
2022-11-30T04:03:41.811Z,14.35
2022-11-30T04:06:09.550Z,13.52
2022-11-30T04:08:37.339Z,14.65
2022-11-30T04:11:05.182Z,14.00
2022-11-30T04:13:32.694Z,13.95
2022-11-30T04:15:59.298Z,15.25
2022-11-30T04:18:27.200Z,15.10
2022-11-30T04:20:55.005Z,12.50
2022-11-30T04:23:22.632Z,13.13
2022-11-30T04:25:49.271Z,13.93
2022-11-30T04:28:16.684Z,12.60
2022-11-30T04:30:43.674Z,13.90
2022-11-30T04:33:10.155Z,13.90
2022-11-30T04:35:45.823Z,13.57
2022-11-30T04:38:12.309Z,13.48
2022-11-30T04:40:40.524Z,12.88
2022-11-30T04:43:07.250Z,21.25
2022-11-30T04:45:35.598Z,14.15
2022-11-30T04:48:02.710Z,17.15
2022-11-30T04:50:29.166Z,15.20
2022-11-30T04:52:55.631Z,12.65
2022-11-30T04:55:21.993Z,17.00
2022-11-30T04:57:48.935Z,11.95
2022-11-30T05:00:16.960Z,16.92
2022-11-30T05:02:50.567Z,13.70
2022-11-30T05:05:18.768Z,13.30
2022-11-30T05:07:49.675Z,14.48
2022-11-30T05:10:18.543Z,14.10
2022-11-30T05:12:45.234Z,14.60
2022-11-30T05:15:11.646Z,14.70
2022-11-30T05:17:38.103Z,11.32
2022-11-30T05:20:05.142Z,14.43
2022-11-30T05:22:31.611Z,13.90
2022-11-30T05:24:57.984Z,13.75
2022-11-30T05:27:24.343Z,14.40
2022-11-30T05:29:50.745Z,13.25
2022-11-30T05:32:17.138Z,11.50
2022-11-30T05:34:50.784Z,13.45
2022-11-30T05:37:18.498Z,11.27
2022-11-30T05:39:44.907Z,12.80
2022-11-30T05:42:11.321Z,11.13
2022-11-30T05:44:37.715Z,11.52
2022-11-30T05:47:04.319Z,12.95
2022-11-30T05:49:30.728Z,12.10
2022-11-30T05:51:57.163Z,13.93
2022-11-30T05:54:23.554Z,10.15
2022-11-30T05:56:54.401Z,15.10
2022-11-30T05:59:22.902Z,12.07
2022-11-30T06:01:52.003Z,12.75
2022-11-30T06:04:18.596Z,14.30
2022-11-30T06:06:45.006Z,10.00
2022-11-30T06:09:11.442Z,10.52
2022-11-30T06:11:37.810Z,11.13
2022-11-30T06:14:04.325Z,10.98
2022-11-30T06:16:30.723Z,25.67
2022-11-30T06:18:57.141Z,31.10
2022-11-30T06:21:24.921Z,26.52
2022-11-30T06:23:52.081Z,29.75
2022-11-30T06:26:18.440Z,46.95
2022-11-30T06:28:48.217Z,39.30
2022-11-30T06:31:16.123Z,37.13
2022-11-30T06:33:42.662Z,68.60
2022-11-30T06:36:09.400Z,57.33
2022-11-30T06:38:35.843Z,41.78
2022-11-30T06:41:12.439Z,56.20
2022-11-30T06:43:39.341Z,77.25
2022-11-30T06:46:06.961Z,97.25
2022-11-30T06:48:34.450Z,73.53
2022-11-30T06:51:01.228Z,52.80
2022-11-30T06:53:27.672Z,84.07
2022-11-30T06:55:54.181Z,57.00
2022-11-30T06:58:20.636Z,73.57
2022-11-30T07:00:47.415Z,65.03
2022-11-30T07:03:14.093Z,85.50
2022-11-30T07:05:42.911Z,111.82
2022-11-30T07:08:10.406Z,150.60
2022-11-30T07:10:41.116Z,101.00
2022-11-30T07:13:12.057Z,80.45
2022-11-30T07:15:39.638Z,86.07
2022-11-30T07:18:06.163Z,87.35
2022-11-30T07:20:32.929Z,125.00
2022-11-30T07:23:19.264Z,221.15
2022-11-30T07:26:04.419Z,132.57
2022-11-30T07:28:30.796Z,105.32
2022-11-30T07:30:57.145Z,111.15
2022-11-30T07:33:23.575Z,182.15
2022-11-30T07:35:49.970Z,78.38
2022-11-30T07:38:19.755Z,74.75
2022-11-30T07:40:46.151Z,54.95
2022-11-30T07:43:12.524Z,61.92
2022-11-30T07:45:38.978Z,75.43
2022-11-30T07:48:05.491Z,59.90
2022-11-30T07:50:31.992Z,124.53
2022-11-30T07:52:58.573Z,81.93
2022-11-30T07:55:25.031Z,68.43
2022-11-30T07:57:51.466Z,63.45
2022-11-30T08:00:17.887Z,95.00
2022-11-30T08:02:44.256Z,68.03
2022-11-30T08:05:12.112Z,57.92
2022-11-30T08:07:38.593Z,56.53
2022-11-30T08:10:05.832Z,58.15
2022-11-30T08:12:32.454Z,84.18
2022-11-30T08:15:19.498Z,52.50
2022-11-30T08:17:45.553Z,53.42
2022-11-30T08:20:12.188Z,59.97
2022-11-30T08:22:38.581Z,48.47
2022-11-30T08:25:05.560Z,50.13
2022-11-30T08:27:32.061Z,58.80
2022-11-30T08:29:58.502Z,73.15
2022-11-30T08:32:24.973Z,68.93
2022-11-30T08:34:51.385Z,64.55
2022-11-30T08:37:17.790Z,59.97
2022-11-30T08:39:44.210Z,53.45
2022-11-30T08:42:10.639Z,57.20
2022-11-30T08:44:37.009Z,56.65
2022-11-30T08:47:03.520Z,63.95
2022-11-30T08:49:30.858Z,56.58
2022-11-30T08:54:45.910Z,69.43
2022-11-30T08:57:13.189Z,77.30
2022-11-30T08:59:39.605Z,59.70
2022-11-30T09:02:06.351Z,69.85
2022-11-30T09:04:32.925Z,78.20
2022-11-30T09:07:00.822Z,69.50
2022-11-30T09:09:27.457Z,69.03
2022-11-30T09:11:53.952Z,70.00
2022-11-30T09:14:20.402Z,80.82
2022-11-30T09:16:46.859Z,66.78
2022-11-30T09:19:13.257Z,73.72
2022-11-30T09:21:39.829Z,75.22
2022-11-30T09:24:06.381Z,74.95
2022-11-30T09:26:32.870Z,80.90
2022-11-30T09:29:00.090Z,70.65
2022-11-30T09:31:26.998Z,91.85
2022-11-30T09:33:55.778Z,71.90
2022-11-30T09:36:23.775Z,63.83
2022-11-30T09:38:50.150Z,61.85
2022-11-30T09:41:28.589Z,67.78
2022-11-30T09:44:07.044Z,67.70
2022-11-30T09:46:50.145Z,61.88
2022-11-30T09:49:24.467Z,56.58
2022-11-30T09:51:54.943Z,60.50
2022-11-30T09:54:35.369Z,58.80
2022-11-30T09:57:15.861Z,59.53
2022-11-30T09:59:51.521Z,58.88
2022-11-30T10:02:18.594Z,56.78
2022-11-30T10:04:45.833Z,59.38
2022-11-30T10:07:38.940Z,62.50
2022-11-30T10:13:19.833Z,53.70
2022-11-30T10:16:24.545Z,57.35
2022-11-30T10:19:18.573Z,50.28
2022-11-30T10:21:56.451Z,48.25
2022-11-30T10:24:38.788Z,55.63
2022-11-30T10:27:18.093Z,52.58
2022-11-30T10:29:44.941Z,65.03
2022-11-30T10:32:20.441Z,51.25
2022-11-30T10:34:55.505Z,52.45
2022-11-30T10:37:25.165Z,50.42
2022-11-30T10:40:01.050Z,50.55
2022-11-30T10:42:32.248Z,48.42
2022-11-30T10:45:03.924Z,55.97
2022-11-30T10:47:36.619Z,52.30
2022-11-30T10:50:05.852Z,52.85
2022-11-30T10:52:41.165Z,57.65
2022-11-30T10:55:23.088Z,53.58
2022-11-30T10:57:54.092Z,55.47
2022-11-30T11:00:20.844Z,58.00
2022-11-30T11:02:49.628Z,55.58
2022-11-30T11:05:21.152Z,61.80
2022-11-30T11:08:05.780Z,62.83
2022-11-30T11:10:44.196Z,59.97
2022-11-30T11:13:38.347Z,63.03
2022-11-30T11:16:06.998Z,67.60
2022-11-30T11:18:34.796Z,62.90
2022-11-30T11:21:06.256Z,70.15
2022-11-30T11:23:41.171Z,66.32
2022-11-30T11:26:16.201Z,74.18
2022-11-30T11:28:49.854Z,69.90
2022-11-30T11:31:34.351Z,74.60
2022-11-30T11:34:01.018Z,79.55
2022-11-30T11:36:30.055Z,79.25
2022-11-30T11:38:57.060Z,74.82
2022-11-30T11:41:27.881Z,75.47
2022-11-30T11:44:08.898Z,77.53
2022-11-30T11:46:37.775Z,106.13
2022-11-30T11:49:18.635Z,91.57
2022-11-30T11:51:45.734Z,89.57
2022-11-30T11:54:19.045Z,82.53
2022-11-30T11:56:46.320Z,84.50
2022-11-30T11:59:23.021Z,84.22
2022-11-30T12:01:59.051Z,105.30
2022-11-30T12:04:32.929Z,104.20
2022-11-30T12:07:02.831Z,107.35
2022-11-30T12:09:34.011Z,94.95
2022-11-30T12:12:00.465Z,103.03
2022-11-30T12:14:27.756Z,87.00
2022-11-30T12:17:09.517Z,85.15
2022-11-30T12:20:03.848Z,105.20
2022-11-30T12:22:45.748Z,96.00
2022-11-30T12:25:20.181Z,100.43
2022-11-30T12:28:11.670Z,101.03
2022-11-30T12:30:43.846Z,93.05
2022-11-30T12:33:25.321Z,99.72
2022-11-30T12:36:11.072Z,90.53
2022-11-30T12:38:58.837Z,84.50
2022-11-30T12:41:40.514Z,104.20
2022-11-30T12:44:28.968Z,97.03
2022-11-30T12:46:58.508Z,87.43
2022-11-30T12:50:04.464Z,90.35
2022-11-30T12:52:53.301Z,97.88
2022-11-30T12:55:44.567Z,114.07
2022-11-30T12:58:34.026Z,98.40
2022-11-30T13:01:20.184Z,84.38
2022-11-30T13:03:53.725Z,91.75
2022-11-30T13:06:22.044Z,106.65
2022-11-30T13:08:53.411Z,94.25
2022-11-30T13:11:29.351Z,103.50
2022-11-30T13:13:57.482Z,94.50
2022-11-30T13:16:24.897Z,100.10
2022-11-30T13:18:52.972Z,105.93
2022-11-30T13:21:28.799Z,106.32
2022-11-30T13:24:02.361Z,105.32
2022-11-30T13:26:42.948Z,106.30
2022-11-30T13:29:24.310Z,92.07
2022-11-30T13:31:53.751Z,101.10
2022-11-30T13:34:27.197Z,86.47
2022-11-30T13:37:17.192Z,103.25
2022-11-30T13:39:53.666Z,90.13
2022-11-30T13:42:32.247Z,92.85
2022-11-30T13:45:22.178Z,91.55
2022-11-30T13:47:50.769Z,89.95
2022-11-30T13:50:32.431Z,90.75
2022-11-30T13:52:58.995Z,97.95
2022-11-30T13:55:51.174Z,94.40
2022-11-30T13:58:22.093Z,97.40
2022-11-30T14:01:07.262Z,96.07
2022-11-30T14:03:34.794Z,93.13
2022-11-30T14:06:05.899Z,93.97
2022-11-30T14:08:37.338Z,97.88
2022-11-30T14:11:20.920Z,93.18
2022-11-30T14:13:47.357Z,102.60
2022-11-30T14:16:29.805Z,97.72
2022-11-30T14:18:57.004Z,108.65
2022-11-30T14:21:31.884Z,106.95
2022-11-30T14:24:05.620Z,117.95
2022-11-30T14:26:36.410Z,106.93
2022-11-30T14:29:08.744Z,136.75
2022-11-30T14:31:40.674Z,117.95
2022-11-30T14:34:16.859Z,117.00
2022-11-30T14:36:52.060Z,113.68
2022-11-30T14:39:26.047Z,124.32
2022-11-30T14:41:53.040Z,117.75
2022-11-30T14:44:19.451Z,132.15
2022-11-30T14:46:45.877Z,128.15
2022-11-30T14:49:14.333Z,130.98
2022-11-30T14:51:47.515Z,145.25
2022-11-30T14:54:33.792Z,127.10
2022-11-30T14:57:21.319Z,155.23
2022-11-30T14:59:50.681Z,138.88
2022-11-30T15:02:22.837Z,143.30
2022-11-30T15:04:50.939Z,104.00
2022-11-30T15:07:17.785Z,134.65
2022-11-30T15:09:46.924Z,141.60
2022-11-30T15:12:24.251Z,144.60
2022-11-30T15:15:26.305Z,139.95
2022-11-30T15:17:53.967Z,161.48
2022-11-30T15:20:46.716Z,178.70
2022-11-30T15:23:14.126Z,167.35
2022-11-30T15:25:45.665Z,174.82
2022-11-30T15:28:16.871Z,162.52
2022-11-30T15:30:45.080Z,171.00
2022-11-30T15:33:22.756Z,173.07
2022-11-30T15:36:15.956Z,212.05
2022-11-30T15:38:38.255Z,206.77
2022-11-30T15:41:07.708Z,188.85
2022-11-30T15:43:38.428Z,183.43
2022-11-30T15:46:05.596Z,151.18
2022-11-30T15:48:34.627Z,168.05
2022-11-30T15:51:01.276Z,188.23
2022-11-30T15:53:35.676Z,165.43
2022-11-30T15:56:07.489Z,185.80
2022-11-30T15:58:37.332Z,161.70
2022-11-30T16:01:05.636Z,188.88
2022-11-30T16:03:33.919Z,164.93
2022-11-30T16:06:04.753Z,160.68
2022-11-30T16:08:31.279Z,181.90
2022-11-30T16:10:57.679Z,180.52
2022-11-30T16:13:24.280Z,172.32
2022-11-30T16:15:51.557Z,168.77
2022-11-30T16:18:22.151Z,150.02
2022-11-30T16:20:53.267Z,154.40
2022-11-30T16:23:20.459Z,148.98
2022-11-30T16:25:48.147Z,155.57
2022-11-30T16:28:16.303Z,139.25
2022-11-30T16:30:43.499Z,189.40
2022-11-30T16:33:14.072Z,179.52
2022-11-30T16:35:53.798Z,205.13
2022-11-30T16:38:20.222Z,146.10
2022-11-30T16:40:46.678Z,180.80
2022-11-30T16:43:13.505Z,163.18
2022-11-30T16:45:40.999Z,209.73
2022-11-30T16:48:07.557Z,215.15
2022-11-30T16:50:34.772Z,205.48
2022-11-30T16:53:02.127Z,170.70
2022-11-30T16:55:31.255Z,174.38
2022-11-30T16:57:58.490Z,173.73
2022-11-30T17:00:24.860Z,175.05
2022-11-30T17:02:58.188Z,160.60
2022-11-30T17:05:25.542Z,178.10
2022-11-30T17:07:51.962Z,180.98
2022-11-30T17:10:19.168Z,152.50
2022-11-30T17:12:45.883Z,152.80
2022-11-30T17:15:20.973Z,151.43
2022-11-30T17:17:47.791Z,138.10
2022-11-30T17:20:15.162Z,146.25
2022-11-30T17:22:42.078Z,158.15
2022-11-30T17:25:13.752Z,156.57
2022-11-30T17:27:40.130Z,250.77
2022-11-30T17:30:07.211Z,227.73
2022-11-30T17:32:33.914Z,289.10
2022-11-30T17:35:00.388Z,219.63
2022-11-30T17:37:26.799Z,172.43
2022-11-30T17:39:53.188Z,246.43
2022-11-30T17:42:19.561Z,331.17
2022-11-30T17:44:46.331Z,432.98
2022-11-30T17:47:13.108Z,343.98
2022-11-30T17:49:40.364Z,292.23
2022-11-30T17:52:06.736Z,324.05
2022-11-30T17:54:33.107Z,265.40
2022-11-30T17:56:59.670Z,492.35
2022-11-30T17:59:26.034Z,280.58
2022-11-30T18:01:52.474Z,455.73
2022-11-30T18:04:18.926Z,310.38
2022-11-30T18:06:45.319Z,339.17
2022-11-30T18:09:12.317Z,311.55
2022-11-30T18:11:38.814Z,383.08
2022-11-30T18:14:05.185Z,504.58
2022-11-30T18:16:36.285Z,344.92
2022-11-30T18:19:07.388Z,187.40
2022-11-30T18:21:33.789Z,483.05
2022-11-30T18:24:00.186Z,466.73
2022-11-30T18:26:27.310Z,257.45
2022-11-30T18:28:55.283Z,327.88
2022-11-30T18:31:22.244Z,279.77
2022-11-30T18:33:49.035Z,272.00
2022-11-30T18:36:15.490Z,257.20
2022-11-30T18:38:41.864Z,349.75
2022-11-30T18:41:08.315Z,215.82
2022-11-30T18:43:34.763Z,383.42
2022-11-30T18:46:09.054Z,257.92
2022-11-30T18:48:36.171Z,298.30
2022-11-30T18:51:30.293Z,463.60
2022-11-30T18:54:03.092Z,265.65
2022-11-30T18:56:31.885Z,391.70
2022-11-30T18:59:07.126Z,493.50
2022-11-30T19:01:33.680Z,448.17
2022-11-30T19:04:02.233Z,311.67
2022-11-30T19:06:29.784Z,245.55
2022-11-30T19:08:57.047Z,237.85
2022-11-30T19:11:23.754Z,364.05
2022-11-30T19:13:57.697Z,392.88
2022-11-30T19:16:24.959Z,519.88
2022-11-30T19:18:52.373Z,348.92
2022-11-30T19:21:20.698Z,449.38
2022-11-30T19:23:47.789Z,340.10
2022-11-30T19:26:14.808Z,234.80
2022-11-30T19:28:43.155Z,490.60
2022-11-30T19:31:14.733Z,268.95
2022-11-30T19:33:42.676Z,242.50
2022-11-30T19:36:14.099Z,411.27
2022-11-30T19:38:40.553Z,268.20
2022-11-30T19:41:09.177Z,367.17
2022-11-30T19:43:36.034Z,291.48
2022-11-30T19:46:06.627Z,223.27
2022-11-30T19:48:33.843Z,245.52
2022-11-30T19:51:04.506Z,228.82
2022-11-30T19:53:30.864Z,173.60
2022-11-30T19:55:57.266Z,252.15
2022-11-30T19:58:23.707Z,343.58
2022-11-30T20:00:50.172Z,254.60
2022-11-30T20:03:16.861Z,292.02
2022-11-30T20:05:49.421Z,220.27
2022-11-30T20:10:42.150Z,158.38
2022-11-30T20:13:11.907Z,167.25
2022-11-30T20:15:39.382Z,217.00
2022-11-30T20:18:06.829Z,174.43
2022-11-30T20:20:33.860Z,195.50
2022-11-30T20:23:00.632Z,180.98
2022-11-30T20:25:29.372Z,201.60
2022-11-30T20:27:55.752Z,203.43
2022-11-30T20:30:22.123Z,217.93
2022-11-30T20:32:48.532Z,225.25
2022-11-30T20:35:14.940Z,164.63
2022-11-30T20:37:41.345Z,192.85
2022-11-30T20:40:08.494Z,181.18
2022-11-30T20:42:34.861Z,209.10
2022-11-30T20:45:01.265Z,181.95
2022-11-30T20:47:32.082Z,278.58
2022-11-30T20:50:01.657Z,185.55
2022-11-30T20:52:28.240Z,215.85
2022-11-30T20:54:54.639Z,249.57
2022-11-30T20:57:21.024Z,190.30
2022-11-30T20:59:47.430Z,177.02
2022-11-30T21:02:13.960Z,218.05
2022-11-30T21:04:40.416Z,178.55
2022-11-30T21:07:06.819Z,213.85
2022-11-30T21:09:33.195Z,274.40
2022-11-30T21:11:59.573Z,304.25
2022-11-30T21:14:25.991Z,229.07
2022-11-30T21:16:52.820Z,192.98
2022-11-30T21:19:19.229Z,254.18
2022-11-30T21:21:45.668Z,258.40
2022-11-30T21:24:12.088Z,205.93
2022-11-30T21:26:40.606Z,234.48
2022-11-30T21:29:13.844Z,233.48
2022-11-30T21:31:40.452Z,197.38
2022-11-30T21:34:06.900Z,217.45
2022-11-30T21:36:33.287Z,315.60
2022-11-30T21:39:05.642Z,186.25
2022-11-30T21:41:34.338Z,240.40
2022-11-30T21:44:00.790Z,191.05
2022-11-30T21:46:27.302Z,178.23
2022-11-30T21:48:53.761Z,164.23
2022-11-30T21:51:22.722Z,158.52
2022-11-30T21:54:09.646Z,136.77
2022-11-30T21:56:37.869Z,164.02
2022-11-30T21:59:05.981Z,120.43
2022-11-30T22:01:34.890Z,122.88
2022-11-30T22:04:03.171Z,144.38
2022-11-30T22:06:31.384Z,117.43
2022-11-30T22:09:03.239Z,99.97
2022-11-30T22:11:30.758Z,124.65
2022-11-30T22:13:57.260Z,98.53
2022-11-30T22:16:25.105Z,119.90
2022-11-30T22:18:53.191Z,101.47
2022-11-30T22:21:21.823Z,113.18
2022-11-30T22:23:59.346Z,135.57
2022-11-30T22:26:28.009Z,129.60
2022-11-30T22:28:58.414Z,130.02
2022-11-30T22:31:26.973Z,89.68
2022-11-30T22:33:53.583Z,117.88
2022-11-30T22:36:22.789Z,109.82
2022-11-30T22:39:00.165Z,98.18
2022-11-30T22:41:27.362Z,96.03
2022-11-30T22:43:54.710Z,97.20
2022-11-30T22:46:24.479Z,158.68
2022-11-30T22:48:51.171Z,129.15
2022-11-30T22:51:20.613Z,139.38
2022-11-30T22:53:47.532Z,170.95
2022-11-30T22:56:19.410Z,145.77
2022-11-30T22:58:47.416Z,128.73
2022-11-30T23:01:18.638Z,135.93
2022-11-30T23:03:46.059Z,126.53
2022-11-30T23:06:15.342Z,129.65
2022-11-30T23:08:42.745Z,114.68
2022-11-30T23:11:11.797Z,121.28
2022-11-30T23:13:38.941Z,149.93
2022-11-30T23:16:06.325Z,102.60
2022-11-30T23:18:38.383Z,107.47
2022-11-30T23:21:10.732Z,112.00
2022-11-30T23:23:37.125Z,103.28
2022-11-30T23:26:09.802Z,100.45
2022-11-30T23:28:36.233Z,104.82
2022-11-30T23:31:03.601Z,95.40
2022-11-30T23:33:30.051Z,92.88
2022-11-30T23:35:56.448Z,103.75
2022-11-30T23:38:22.837Z,87.57
2022-11-30T23:40:49.214Z,85.32
2022-11-30T23:43:15.688Z,114.47
2022-11-30T23:45:42.118Z,117.85
2022-11-30T23:48:10.199Z,129.00
2022-11-30T23:50:37.014Z,134.13
2022-11-30T23:53:03.437Z,116.82
2022-11-30T23:55:29.891Z,127.13
2022-11-30T23:57:56.258Z,111.25
